createdAt,value
2023-04-16T00:01:08.267Z,101470.53
2023-04-16T00:03:38.510Z,101464.44
2023-04-16T00:06:08.831Z,101468.78
2023-04-16T00:08:38.953Z,101458.34
2023-04-16T00:11:09.722Z,101460.91
2023-04-16T00:13:39.865Z,101460.94
2023-04-16T00:16:10.051Z,101469.59
2023-04-16T00:18:40.318Z,101471.34
2023-04-16T00:21:11.243Z,101473.94
2023-04-16T00:23:41.337Z,101470.50
2023-04-16T00:26:11.504Z,101474.81
2023-04-16T00:28:41.867Z,101474.81
2023-04-16T00:31:11.928Z,101473.09
2023-04-16T00:33:42.172Z,101467.88
2023-04-16T00:36:12.301Z,101476.53
2023-04-16T00:38:42.433Z,101472.19
2023-04-16T00:41:12.629Z,101465.25
2023-04-16T00:43:42.896Z,101476.53
2023-04-16T00:46:13.280Z,101470.47
2023-04-16T00:48:45.027Z,101471.34
2023-04-16T00:51:15.585Z,101457.44
2023-04-16T00:53:46.216Z,101475.66
2023-04-16T00:56:17.683Z,101472.16
2023-04-16T00:58:48.000Z,101481.78
2023-04-16T01:01:18.183Z,101468.69
2023-04-16T01:03:49.721Z,101486.06
2023-04-16T01:06:19.924Z,101482.56
2023-04-16T01:08:50.033Z,101483.44
2023-04-16T01:11:20.062Z,101465.13
2023-04-16T01:13:50.637Z,101474.72
2023-04-16T01:16:21.150Z,101467.75
2023-04-16T01:18:51.352Z,101472.06
2023-04-16T01:21:21.468Z,101464.31
2023-04-16T01:23:51.585Z,101467.75
2023-04-16T01:26:21.784Z,101442.47
2023-04-16T01:28:51.898Z,101472.97
2023-04-16T01:31:22.072Z,101475.53
2023-04-16T01:33:52.259Z,101470.28
2023-04-16T01:36:22.373Z,101472.03
2023-04-16T01:38:52.557Z,101471.22
2023-04-16T01:41:22.821Z,101467.72
2023-04-16T01:43:52.884Z,101434.56
2023-04-16T01:46:32.484Z,101452.00
2023-04-16T01:49:04.597Z,101455.47
2023-04-16T01:51:34.772Z,101455.47
2023-04-16T01:54:05.040Z,101466.75
2023-04-16T01:56:35.423Z,101481.53
2023-04-16T01:59:05.679Z,101478.91
2023-04-16T02:01:35.904Z,101484.06
2023-04-16T02:04:06.696Z,101472.75
2023-04-16T02:06:36.869Z,101477.16
2023-04-16T02:09:07.114Z,101470.97
2023-04-16T02:11:37.315Z,101477.06
2023-04-16T02:14:08.758Z,101473.63
2023-04-16T02:16:38.926Z,101474.50
2023-04-16T02:19:09.382Z,101471.00
2023-04-16T02:21:39.845Z,101454.38
2023-04-16T02:24:10.032Z,101464.84
2023-04-16T02:26:40.596Z,101479.66
2023-04-16T02:29:11.142Z,101470.94
2023-04-16T02:31:41.822Z,101475.31
2023-04-16T02:34:11.943Z,101478.81
2023-04-16T02:36:42.322Z,101476.19
2023-04-16T02:39:12.399Z,101484.00
2023-04-16T02:41:42.572Z,101481.41
2023-04-16T02:44:12.641Z,101484.00
2023-04-16T02:46:42.752Z,101479.63
2023-04-16T02:49:12.887Z,101485.69
2023-04-16T02:51:43.075Z,101488.25
2023-04-16T02:54:13.292Z,101484.78
2023-04-16T02:56:43.328Z,101485.66
2023-04-16T02:59:13.533Z,101490.84
2023-04-16T03:01:43.633Z,101492.59
2023-04-16T03:04:13.923Z,101490.75
2023-04-16T03:06:44.029Z,101500.31
2023-04-16T03:09:15.163Z,101491.63
2023-04-16T03:11:45.308Z,101492.47
2023-04-16T03:14:15.645Z,101501.19
2023-04-16T03:16:45.710Z,101503.78
2023-04-16T03:19:16.009Z,101497.72
2023-04-16T03:21:46.071Z,101504.63
2023-04-16T03:24:16.470Z,101505.44
2023-04-16T03:26:46.494Z,101493.22
2023-04-16T03:29:16.554Z,101492.31
2023-04-16T03:31:46.644Z,101504.56
2023-04-16T03:34:16.958Z,101512.38
2023-04-16T03:36:47.095Z,101510.53
2023-04-16T03:39:17.349Z,101517.50
2023-04-16T03:41:47.468Z,101509.56
2023-04-16T03:44:17.574Z,101525.28
2023-04-16T03:46:47.826Z,101523.53
2023-04-16T03:49:17.933Z,101525.25
2023-04-16T03:51:48.063Z,101528.75
2023-04-16T03:54:19.262Z,101533.97
2023-04-16T03:56:52.162Z,101527.91
2023-04-16T03:59:22.293Z,101528.72
2023-04-16T04:01:52.581Z,101538.28
2023-04-16T04:04:23.472Z,101534.75
2023-04-16T04:06:53.740Z,101546.09
2023-04-16T04:09:23.845Z,101545.22
2023-04-16T04:11:53.937Z,101554.75
2023-04-16T04:14:24.050Z,101546.09
2023-04-16T04:16:54.186Z,101556.50
2023-04-16T04:19:24.293Z,101544.31
2023-04-16T04:21:54.381Z,101552.97
2023-04-16T04:24:24.590Z,101546.03
2023-04-16T04:26:54.716Z,101564.31
2023-04-16T04:29:24.874Z,101559.94
2023-04-16T04:31:55.405Z,101566.03
2023-04-16T04:34:25.741Z,101559.97
2023-04-16T04:36:55.796Z,101556.47
2023-04-16T04:39:25.942Z,101566.06
2023-04-16T04:41:57.418Z,101553.91
2023-04-16T04:44:27.522Z,101570.44
2023-04-16T04:46:57.635Z,101553.84
2023-04-16T04:49:27.765Z,101568.72
2023-04-16T04:51:57.885Z,101548.66
2023-04-16T04:54:31.635Z,101569.59
2023-04-16T04:57:02.086Z,101576.56
2023-04-16T04:59:32.397Z,101569.63
2023-04-16T05:02:03.660Z,101573.19
2023-04-16T05:04:33.886Z,101580.09
2023-04-16T05:07:04.015Z,101565.25
2023-04-16T05:09:34.153Z,101562.78
2023-04-16T05:12:04.407Z,101560.06
2023-04-16T05:14:35.030Z,101570.59
2023-04-16T05:17:05.212Z,101566.25
2023-04-16T05:19:35.499Z,101581.03
2023-04-16T05:22:05.914Z,101574.13
2023-04-16T05:24:35.942Z,101590.69
2023-04-16T05:27:06.643Z,101588.91
2023-04-16T05:29:36.771Z,101578.44
2023-04-16T05:32:06.910Z,101598.44
2023-04-16T05:34:36.972Z,101599.34
2023-04-16T05:37:07.068Z,101604.63
2023-04-16T05:39:37.213Z,101603.78
2023-04-16T05:42:07.298Z,101602.03
2023-04-16T05:44:37.717Z,101607.38
2023-04-16T05:47:09.626Z,101582.09
2023-04-16T05:49:39.724Z,101603.91
2023-04-16T05:52:10.219Z,101597.84
2023-04-16T05:54:40.594Z,101603.13
2023-04-16T05:57:10.901Z,101610.06
2023-04-16T05:59:41.143Z,101603.19
2023-04-16T06:02:11.465Z,101604.06
2023-04-16T06:04:41.715Z,101602.31
2023-04-16T06:07:11.951Z,101609.34
2023-04-16T06:09:42.253Z,101617.25
2023-04-16T06:12:13.139Z,101611.13
2023-04-16T06:14:43.406Z,101612.88
2023-04-16T06:17:13.648Z,101600.69
2023-04-16T06:19:43.910Z,101624.22
2023-04-16T06:22:14.244Z,101612.00
2023-04-16T06:24:44.664Z,101627.59
2023-04-16T06:27:14.830Z,101632.84
2023-04-16T06:29:45.174Z,101616.28
2023-04-16T06:32:17.303Z,101638.06
2023-04-16T06:34:47.522Z,101634.56
2023-04-16T06:37:17.735Z,101645.00
2023-04-16T06:39:47.896Z,101643.25
2023-04-16T06:42:19.079Z,101649.34
2023-04-16T06:44:49.280Z,101648.50
2023-04-16T06:47:19.557Z,101644.22
2023-04-16T06:49:49.671Z,101648.56
2023-04-16T06:52:19.873Z,101609.41
2023-04-16T06:54:49.994Z,101639.91
2023-04-16T06:57:20.158Z,101638.22
2023-04-16T06:59:50.492Z,101621.63
2023-04-16T07:02:20.892Z,101638.25
2023-04-16T07:04:52.583Z,101618.25
2023-04-16T07:07:22.632Z,101643.59
2023-04-16T07:09:52.861Z,101643.59
2023-04-16T07:12:23.144Z,101625.31
2023-04-16T07:14:53.442Z,101648.94
2023-04-16T07:17:23.567Z,101640.25
2023-04-16T07:19:53.714Z,101641.19
2023-04-16T07:22:23.859Z,101647.28
2023-04-16T07:24:54.036Z,101650.78
2023-04-16T07:27:24.233Z,101626.41
2023-04-16T07:29:55.554Z,101645.66
2023-04-16T07:32:26.372Z,101655.22
2023-04-16T07:34:57.217Z,101640.44
2023-04-16T07:37:27.450Z,101648.28
2023-04-16T07:39:57.845Z,101651.75
2023-04-16T07:42:28.400Z,101644.72
2023-04-16T07:44:58.533Z,101647.34
2023-04-16T07:47:28.730Z,101656.88
2023-04-16T07:49:58.878Z,101655.97
2023-04-16T07:52:29.049Z,101648.97
2023-04-16T07:54:59.133Z,101643.72
2023-04-16T07:57:29.334Z,101658.47
2023-04-16T08:00:02.434Z,101664.59
2023-04-16T08:02:33.142Z,101664.63
2023-04-16T08:05:03.551Z,101672.44
2023-04-16T08:07:34.836Z,101676.81
2023-04-16T08:10:06.190Z,101669.88
2023-04-16T08:12:36.427Z,101677.84
2023-04-16T08:15:07.615Z,101681.34
2023-04-16T08:17:37.922Z,101667.44
2023-04-16T08:20:08.745Z,101670.09
2023-04-16T08:22:38.870Z,101676.19
2023-04-16T08:25:09.570Z,101659.72
2023-04-16T08:27:39.734Z,101679.81
2023-04-16T08:30:09.990Z,101671.09
2023-04-16T08:32:40.197Z,101675.44
2023-04-16T08:35:10.635Z,101684.16
2023-04-16T08:37:40.902Z,101686.78
2023-04-16T08:40:11.390Z,101685.94
2023-04-16T08:42:49.019Z,101687.66
2023-04-16T08:45:19.200Z,101688.53
2023-04-16T08:47:51.624Z,101695.50
2023-04-16T08:50:26.809Z,101690.28
2023-04-16T08:53:09.161Z,101685.06
2023-04-16T08:55:41.457Z,101692.91
2023-04-16T08:58:19.194Z,101692.06
2023-04-16T09:00:50.128Z,101705.13
2023-04-16T09:03:21.881Z,101693.78
2023-04-16T09:05:53.779Z,101698.16
2023-04-16T09:08:24.583Z,101704.22
2023-04-16T09:10:56.180Z,101685.06
2023-04-16T09:13:27.148Z,101711.22
2023-04-16T09:15:57.803Z,101690.31
2023-04-16T09:18:28.650Z,101705.16
2023-04-16T09:20:58.974Z,101713.00
2023-04-16T09:23:29.838Z,101719.06
2023-04-16T09:26:00.156Z,101713.84
2023-04-16T09:28:45.514Z,101726.03
2023-04-16T09:31:18.032Z,101720.84
2023-04-16T09:34:09.315Z,101726.94
2023-04-16T09:36:40.209Z,101718.25
2023-04-16T09:39:21.471Z,101726.94
2023-04-16T09:41:55.350Z,101731.28
2023-04-16T09:44:38.567Z,101722.56
2023-04-16T09:47:09.814Z,101739.97
2023-04-16T09:49:43.700Z,101740.84
2023-04-16T09:52:19.265Z,101734.75
2023-04-16T09:54:54.490Z,101733.88
2023-04-16T09:57:26.199Z,101724.31
2023-04-16T10:00:05.330Z,101733.88
2023-04-16T10:02:39.666Z,101730.34
2023-04-16T10:05:11.042Z,101746.91
2023-04-16T10:07:41.665Z,101749.53
2023-04-16T10:10:15.953Z,101738.16
2023-04-16T10:12:47.842Z,101745.13
2023-04-16T10:15:24.459Z,101756.44
2023-04-16T10:17:58.876Z,101757.31
2023-04-16T10:20:33.082Z,101756.44
2023-04-16T10:23:10.199Z,101753.78
2023-04-16T10:25:47.761Z,101752.03
2023-04-16T10:28:23.498Z,101748.53
2023-04-16T10:30:58.782Z,101760.75
2023-04-16T10:33:47.796Z,101760.75
2023-04-16T10:36:30.073Z,101759.88
2023-04-16T10:39:13.075Z,101759.91
2023-04-16T10:41:46.373Z,101753.78
2023-04-16T10:44:20.832Z,101765.97
2023-04-16T10:46:59.737Z,101779.06
2023-04-16T10:49:29.910Z,101755.50
2023-04-16T10:52:07.521Z,101766.81
2023-04-16T10:54:38.269Z,101769.44
2023-04-16T10:57:19.861Z,101772.06
2023-04-16T10:59:50.028Z,101772.94
2023-04-16T11:02:20.394Z,101769.44
2023-04-16T11:04:50.819Z,101771.19
2023-04-16T11:07:32.271Z,101776.41
2023-04-16T11:10:06.928Z,101786.88
2023-04-16T11:12:45.049Z,101784.25
2023-04-16T11:15:17.127Z,101776.38
2023-04-16T11:17:50.785Z,101790.38
2023-04-16T11:20:28.415Z,101788.59
2023-04-16T11:22:58.851Z,101784.25
2023-04-16T11:25:31.775Z,101790.38
2023-04-16T11:28:02.714Z,101791.22
2023-04-16T11:30:34.827Z,101771.19
2023-04-16T11:33:05.601Z,101800.84
2023-04-16T11:35:36.280Z,101797.38
2023-04-16T11:38:07.692Z,101800.81
2023-04-16T11:40:38.090Z,101792.13
2023-04-16T11:43:16.588Z,101798.19
2023-04-16T11:45:59.789Z,101794.72
2023-04-16T11:48:54.592Z,101795.63
2023-04-16T11:51:24.999Z,101788.63
2023-04-16T11:53:56.642Z,101795.56
2023-04-16T11:56:29.608Z,101795.53
2023-04-16T11:59:15.841Z,101803.31
2023-04-16T12:01:48.709Z,101808.50
2023-04-16T12:04:21.577Z,101816.34
2023-04-16T12:07:10.701Z,101806.72
2023-04-16T12:09:43.268Z,101810.19
2023-04-16T12:12:31.579Z,101805.84
2023-04-16T12:15:04.090Z,101812.75
2023-04-16T12:17:35.761Z,101817.16
2023-04-16T12:20:13.971Z,101817.06
2023-04-16T12:22:47.036Z,101817.91
2023-04-16T12:25:18.248Z,101830.91
2023-04-16T12:27:54.220Z,101825.63
2023-04-16T12:30:26.603Z,101822.09
2023-04-16T12:33:17.489Z,101828.25
2023-04-16T12:35:47.772Z,101832.56
2023-04-16T12:38:17.792Z,101816.00
2023-04-16T12:40:48.069Z,101812.53
2023-04-16T12:43:18.154Z,101835.22
2023-04-16T12:45:48.933Z,101832.69
2023-04-16T12:48:19.667Z,101832.72
2023-04-16T12:50:55.034Z,101832.78
2023-04-16T12:53:25.237Z,101824.97
2023-04-16T12:55:55.481Z,101817.13
2023-04-16T12:58:25.703Z,101820.66
2023-04-16T13:00:56.086Z,101823.38
2023-04-16T13:03:26.576Z,101812.94
2023-04-16T13:05:57.199Z,101820.81
2023-04-16T13:08:27.309Z,101841.78
2023-04-16T13:10:57.585Z,101832.13
2023-04-16T13:13:27.766Z,101834.75
2023-04-16T13:15:58.061Z,101839.94
2023-04-16T13:18:28.210Z,101834.72
2023-04-16T13:20:58.789Z,101830.34
2023-04-16T13:23:29.163Z,101828.59
2023-04-16T13:25:59.279Z,101841.63
2023-04-16T13:28:29.502Z,101836.38
2023-04-16T13:31:00.013Z,101834.59
2023-04-16T13:33:30.243Z,101841.56
2023-04-16T13:36:00.529Z,101843.31
2023-04-16T13:38:30.652Z,101841.53
2023-04-16T13:41:10.561Z,101846.75
2023-04-16T13:43:40.621Z,101844.13
2023-04-16T13:46:10.774Z,101848.50
2023-04-16T13:48:41.060Z,101851.97
2023-04-16T13:51:11.336Z,101849.34
2023-04-16T13:53:45.262Z,101847.59
2023-04-16T13:56:20.732Z,101853.69
2023-04-16T13:58:51.120Z,101852.81
2023-04-16T14:01:21.958Z,101843.25
2023-04-16T14:03:52.254Z,101849.34
2023-04-16T14:06:22.480Z,101853.66
2023-04-16T14:08:52.712Z,101846.66
2023-04-16T14:11:23.799Z,101822.16
2023-04-16T14:13:54.159Z,101859.63
2023-04-16T14:16:24.522Z,101851.72
2023-04-16T14:18:56.258Z,101849.94
2023-04-16T14:21:27.412Z,101847.31
2023-04-16T14:23:57.801Z,101845.59
2023-04-16T14:26:28.003Z,101851.75
2023-04-16T14:28:58.224Z,101852.66
2023-04-16T14:31:28.571Z,101834.34
2023-04-16T14:33:58.818Z,101851.88
2023-04-16T14:36:30.185Z,101858.88
2023-04-16T14:39:00.861Z,101844.06
2023-04-16T14:41:31.579Z,101858.91
2023-04-16T14:44:01.621Z,101863.25
2023-04-16T14:46:33.887Z,101855.34
2023-04-16T14:49:04.598Z,101865.78
2023-04-16T14:51:36.120Z,101840.47
2023-04-16T14:54:06.637Z,101870.09
2023-04-16T14:56:36.697Z,101868.38
2023-04-16T14:59:07.053Z,101842.22
2023-04-16T15:01:39.865Z,101870.97
2023-04-16T15:04:10.260Z,101872.69
2023-04-16T15:06:40.576Z,101877.94
2023-04-16T15:09:10.996Z,101868.25
2023-04-16T15:11:41.227Z,101882.22
2023-04-16T15:14:11.586Z,101876.13
2023-04-16T15:16:42.930Z,101885.72
2023-04-16T15:19:15.886Z,101885.72
2023-04-16T15:21:50.834Z,101883.91
2023-04-16T15:24:25.332Z,101883.03
2023-04-16T15:26:59.593Z,101886.56
2023-04-16T15:29:30.932Z,101877.00
2023-04-16T15:32:01.528Z,101902.25
2023-04-16T15:34:32.813Z,101889.13
2023-04-16T15:37:02.947Z,101889.94
2023-04-16T15:39:33.115Z,101906.44
2023-04-16T15:42:07.397Z,101901.16
2023-04-16T15:44:37.957Z,101897.56
2023-04-16T15:47:08.909Z,101904.47
2023-04-16T15:49:39.076Z,101891.31
2023-04-16T15:52:11.991Z,101898.25
2023-04-16T15:54:43.200Z,101901.69
2023-04-16T15:57:13.384Z,101894.69
2023-04-16T15:59:46.195Z,101905.16
2023-04-16T16:02:23.517Z,101899.91
2023-04-16T16:04:54.091Z,101903.34
2023-04-16T16:07:25.368Z,101903.34
2023-04-16T16:09:56.461Z,101902.50
2023-04-16T16:12:29.752Z,101899.84
2023-04-16T16:15:00.218Z,101905.03
2023-04-16T16:17:32.790Z,101895.41
2023-04-16T16:20:06.878Z,101912.06
2023-04-16T16:22:38.466Z,101880.56
2023-04-16T16:25:16.663Z,101911.13
2023-04-16T16:27:57.267Z,101911.09
2023-04-16T16:30:31.415Z,101918.03
2023-04-16T16:33:01.668Z,101913.56
2023-04-16T16:35:32.113Z,101925.78
2023-04-16T16:38:08.975Z,101919.66
2023-04-16T16:40:41.025Z,101921.38
2023-04-16T16:43:14.230Z,101924.88
2023-04-16T16:45:46.607Z,101914.38
2023-04-16T16:48:19.197Z,101917.91
2023-04-16T16:51:05.700Z,101923.09
2023-04-16T16:53:36.005Z,101939.66
2023-04-16T16:56:06.794Z,101940.44
2023-04-16T16:58:39.159Z,101935.06
2023-04-16T17:01:09.785Z,101944.59
2023-04-16T17:03:40.852Z,101927.06
2023-04-16T17:06:11.292Z,101939.16
2023-04-16T17:08:41.456Z,101917.25
2023-04-16T17:11:11.809Z,101941.69
2023-04-16T17:13:42.027Z,101952.13
2023-04-16T17:16:13.510Z,101924.03
2023-04-16T17:18:43.790Z,101944.09
2023-04-16T17:21:15.927Z,101944.91
2023-04-16T17:23:46.810Z,101944.81
2023-04-16T17:26:17.324Z,101959.53
2023-04-16T17:28:48.249Z,101934.13
2023-04-16T17:31:18.622Z,101952.41
2023-04-16T17:33:49.893Z,101937.47
2023-04-16T17:36:21.825Z,101951.44
2023-04-16T17:38:52.134Z,101931.22
2023-04-16T17:41:22.300Z,101953.84
2023-04-16T17:43:52.746Z,101964.13
2023-04-16T17:46:23.379Z,101958.06
2023-04-16T17:48:53.958Z,101963.19
2023-04-16T17:51:24.320Z,101948.19
2023-04-16T17:53:54.647Z,101975.34
2023-04-16T17:56:40.398Z,101962.25
2023-04-16T17:59:10.630Z,101969.97
2023-04-16T18:01:41.208Z,101977.91
2023-04-16T18:04:11.752Z,101978.78
2023-04-16T18:06:43.116Z,101967.25
2023-04-16T18:09:14.595Z,101976.78
2023-04-16T18:11:47.745Z,101965.38
2023-04-16T18:14:20.469Z,101976.78
2023-04-16T18:16:50.817Z,101983.84
2023-04-16T18:19:26.489Z,101959.25
2023-04-16T18:21:56.684Z,101961.84
2023-04-16T18:24:27.103Z,101986.28
2023-04-16T18:26:57.362Z,102001.13
2023-04-16T18:29:27.457Z,102001.13
2023-04-16T18:31:58.126Z,101982.72
2023-04-16T18:34:29.850Z,101999.25
2023-04-16T18:37:00.978Z,102005.38
2023-04-16T18:39:33.939Z,102001.00
2023-04-16T18:42:06.864Z,102017.59
2023-04-16T18:44:37.545Z,102002.75
2023-04-16T18:47:08.386Z,101996.63
2023-04-16T18:49:38.748Z,102013.25
2023-04-16T18:52:09.189Z,101991.25
2023-04-16T18:54:40.953Z,102015.81
2023-04-16T18:57:11.110Z,102006.16
2023-04-16T18:59:41.273Z,101996.56
2023-04-16T19:02:11.471Z,102010.47
2023-04-16T19:04:42.986Z,101997.31
2023-04-16T19:07:13.331Z,102013.91
2023-04-16T19:09:43.538Z,102025.25
2023-04-16T19:12:13.795Z,102005.97
2023-04-16T19:14:43.916Z,102015.59
2023-04-16T19:17:14.037Z,102017.38
2023-04-16T19:19:44.216Z,102015.59
2023-04-16T19:22:14.468Z,102017.28
2023-04-16T19:24:44.616Z,102017.19
2023-04-16T19:27:14.833Z,102010.22
2023-04-16T19:29:46.846Z,102018.16
2023-04-16T19:32:16.974Z,102009.31
2023-04-16T19:34:47.661Z,102029.41
2023-04-16T19:37:18.510Z,101990.94
2023-04-16T19:39:48.751Z,102022.47
2023-04-16T19:42:18.961Z,102021.63
2023-04-16T19:44:49.210Z,102033.84
2023-04-16T19:47:20.402Z,102026.91
2023-04-16T19:49:51.644Z,102030.38
2023-04-16T19:52:22.914Z,102012.88
2023-04-16T19:54:56.830Z,102023.41
2023-04-16T19:57:29.141Z,102028.59
2023-04-16T19:59:59.482Z,102016.34
2023-04-16T20:02:29.719Z,102018.97
2023-04-16T20:05:01.602Z,102027.69
2023-04-16T20:07:31.677Z,102025.13
2023-04-16T20:10:03.100Z,102005.81
2023-04-16T20:12:33.606Z,102022.50
2023-04-16T20:15:04.619Z,102018.19
2023-04-16T20:17:34.878Z,102021.63
2023-04-16T20:20:10.229Z,102012.81
2023-04-16T20:22:40.583Z,102006.75
2023-04-16T20:25:10.812Z,101989.25
2023-04-16T20:27:40.979Z,102016.34
2023-04-16T20:30:11.665Z,101981.28
2023-04-16T20:32:41.963Z,101997.06
2023-04-16T20:35:12.321Z,102002.34
2023-04-16T20:37:43.283Z,102014.53
2023-04-16T20:40:15.090Z,102011.91
2023-04-16T20:42:51.040Z,102000.53
2023-04-16T20:45:22.008Z,102019.72
2023-04-16T20:47:52.410Z,102019.72
2023-04-16T20:50:22.530Z,101999.56
2023-04-16T20:52:53.009Z,102025.72
2023-04-16T20:55:23.239Z,102023.13
2023-04-16T20:57:53.349Z,102015.34
2023-04-16T21:00:23.555Z,101997.75
2023-04-16T21:02:53.826Z,102029.28
2023-04-16T21:05:26.637Z,102011.81
2023-04-16T21:07:56.798Z,102031.88
2023-04-16T21:10:26.917Z,102010.88
2023-04-16T21:12:57.244Z,102040.53
2023-04-16T21:15:27.297Z,102031.84
2023-04-16T21:17:57.515Z,102033.63
2023-04-16T21:20:29.917Z,102011.88
2023-04-16T21:23:01.206Z,102033.69
2023-04-16T21:25:31.956Z,102025.03
2023-04-16T21:28:02.166Z,102011.91
2023-04-16T21:30:32.538Z,102026.81
2023-04-16T21:33:03.534Z,102022.44
2023-04-16T21:35:34.171Z,102021.63
2023-04-16T21:38:04.285Z,102030.31
2023-04-16T21:40:34.894Z,102029.47
2023-04-16T21:43:05.072Z,102034.69
2023-04-16T21:45:35.757Z,102024.22
2023-04-16T21:48:06.159Z,101999.75
2023-04-16T21:50:36.338Z,102028.69
2023-04-16T21:53:06.771Z,102029.53
2023-04-16T21:55:37.180Z,102032.19
2023-04-16T21:58:07.375Z,102027.78
2023-04-16T22:00:37.566Z,102013.78
2023-04-16T22:03:09.225Z,102034.81
2023-04-16T22:05:39.478Z,102036.56
2023-04-16T22:08:23.459Z,102040.03
2023-04-16T22:11:02.247Z,102039.16
2023-04-16T22:13:36.795Z,102033.84
2023-04-16T22:16:08.808Z,102004.94
2023-04-16T22:18:41.564Z,102042.59
2023-04-16T22:21:11.843Z,102042.59
2023-04-16T22:23:42.025Z,102037.38
2023-04-16T22:26:13.011Z,102033.09
2023-04-16T22:28:43.168Z,102047.97
2023-04-16T22:31:13.534Z,102041.75
2023-04-16T22:33:43.650Z,102014.66
2023-04-16T22:36:13.863Z,102049.59
2023-04-16T22:38:44.007Z,102048.59
2023-04-16T22:41:14.291Z,102034.66
2023-04-16T22:43:44.405Z,102044.22
2023-04-16T22:46:14.772Z,102047.56
2023-04-16T22:48:45.014Z,102060.69
2023-04-16T22:51:15.205Z,102052.00
2023-04-16T22:53:45.304Z,102048.41
2023-04-16T22:56:15.442Z,102060.69
2023-04-16T22:58:46.486Z,102056.38
2023-04-16T23:01:17.250Z,102046.78
2023-04-16T23:03:47.615Z,102054.63
2023-04-16T23:06:17.843Z,102065.16
2023-04-16T23:08:47.953Z,102058.22
2023-04-16T23:11:18.156Z,102050.31
2023-04-16T23:13:48.395Z,102058.09
2023-04-16T23:16:18.623Z,102063.34
2023-04-16T23:18:48.773Z,102056.41
2023-04-16T23:21:18.914Z,102060.69
2023-04-16T23:23:49.050Z,102069.44
2023-04-16T23:26:19.100Z,102061.66
2023-04-16T23:28:49.255Z,102064.25
2023-04-16T23:31:19.343Z,102061.56
2023-04-16T23:33:49.526Z,102052.81
2023-04-16T23:36:19.648Z,102063.31
2023-04-16T23:38:49.813Z,102068.53
2023-04-16T23:41:20.030Z,102072.88
2023-04-16T23:43:50.209Z,102059.88
2023-04-16T23:46:20.541Z,102069.44
2023-04-16T23:48:50.780Z,102054.59
2023-04-16T23:51:20.986Z,102062.44
2023-04-16T23:53:51.121Z,102065.91
2023-04-16T23:56:21.370Z,102065.88
2023-04-16T23:58:51.534Z,102069.34
